Domov               UVHVVR             MKGP            O straneh              
ZDRAVSTVENO VARSTVO RASTLIN
  MREŽA AGROMET. POSTAJ
 ► PROGNOSTIČNA OBVESTILA
AGROMETEOROLOŠKI PODATKI -
ARSO
OBVLADOVANJE TVEGANJ ZARADI
NEUGODNIH VREMENSKIH RAZMER
  ► NARAVNE NESREČE
  ► SUŠA/MOČA
  ► NAMAKANJE
  ► ŽLED (gozdarstvo)
KARTOGRAFSKI PRIKAZI
SPLETNE POVEZAVE
PROJEKTI IN PUBLIKACIJE

AGROMETEOROLOŠKA MREŽA: VREMENSKE POSTAJE IN FENOLOŠKA OPAZOVANJA

Pregled podatkov za lokacijo Gabernik-Rogaška, meteorološka postaja 37800

Pregled senzorjev na lokaciji

ID Ime Zadnja
vrednost
Datum
zadnje
spremembe
Tip
senzorja
1826 Temperatura 2 m ( °C) 22,76 °C 21.8.2017 15:00 50YA
1827 Relativna vlaga 2 m (% RH) 44,62 % RH 21.8.2017 15:00 50YA
1828 Omočenost lista (U) 0 U 21.8.2017 15:00 A730WET
1829 Padavine 0.2 mm (mm) 0 mm 21.8.2017 15:00 Rain-O-Matic

Pregled podatkov zadnjih 24 ur

Zap.
št.
Datum in čas Gabernik-Rogaška
Omočenost
lista
Padavine
0.2
mm
Relativna
vlaga
2
m
Temperatura
2
m
0 21.8.2017 14:00 0 0 44,62 22,76
1 21.8.2017 13:30 0 0 45,15 23,52
2 21.8.2017 13:00 0 0 46,11 23
3 21.8.2017 12:30 0 0 48,03 21,88
4 21.8.2017 12:00 0 0 46,08 21,95
5 21.8.2017 11:30 0 0 44,62 21,81
6 21.8.2017 11:00 0 0 47,72 20,95
7 21.8.2017 10:30 0 0 49,84 19,19
8 21.8.2017 10:00 0 0 50,01 18,05
9 21.8.2017 09:30 0 0 66,37 16,36
10 21.8.2017 09:00 0 0 75,92 14,82
11 21.8.2017 08:30 0 0 79,15 13,7
12 21.8.2017 08:00 0 0 84 12,41
13 21.8.2017 07:30 0 0 85,71 11,48
14 21.8.2017 07:00 0 0 77,78 11,97
15 21.8.2017 06:30 0 0 73,68 11,89
16 21.8.2017 06:00 0 0 76,8 11,31
17 21.8.2017 05:30 0 0 77,68 10,94
18 21.8.2017 05:00 0 0 74,46 11,55
19 21.8.2017 04:30 0 0 59,88 14,04
20 21.8.2017 04:00 0 0 58,51 14,04
21 21.8.2017 03:30 0 0 58,34 13,8
22 21.8.2017 03:00 0 0 66,81 12,67
23 21.8.2017 02:30 0 0 63,52 13,06
24 21.8.2017 02:00 0 0 59,58 13,8
25 21.8.2017 01:30 0 0 59,88 14,07
26 21.8.2017 01:00 0 0 49,87 15,36
27 21.8.2017 00:30 0 0 50,57 15,34
28 21.8.2017 00:00 0 0 50,55 15,65
29 20.8.2017 23:30 0 0 52,53 15,63
30 20.8.2017 23:00 0 0 53,77 15,75
31 20.8.2017 22:30 0 0 55,9 15,7
32 20.8.2017 22:00 0 0 56,97 16,02
33 20.8.2017 21:30 0 0 60,95 16,07
34 20.8.2017 21:00 0 0 68,25 15,85
35 20.8.2017 20:30 0 0 65,93 16,63
36 20.8.2017 20:00 0 0 63,81 17,02
37 20.8.2017 19:30 0 0 63,32 17,24
38 20.8.2017 19:00 0 0 64,52 17,48
39 20.8.2017 18:30 0 0 62,95 18,61
40 20.8.2017 18:00 0 0 61,54 18,8
41 20.8.2017 17:30 0 0 60 18,78
42 20.8.2017 17:00 0 0 56,92 19,46
43 20.8.2017 16:30 0 0 57,56 19,71
44 20.8.2017 16:00 0 0 50,82 21,81
© 2011 Ministrstvo za kmetijstvo, gozdarstvo in prehrano. Vse pravice pridržane.